createdAt,value
2018-05-21T00:00:33.095Z,989.56
2018-05-21T00:01:33.087Z,989.55
2018-05-21T00:02:33.089Z,989.49
2018-05-21T00:03:33.087Z,989.5
2018-05-21T00:04:33.084Z,989.54
2018-05-21T00:05:33.085Z,989.49
2018-05-21T00:06:33.087Z,989.47
2018-05-21T00:07:33.082Z,989.44
2018-05-21T00:08:33.103Z,989.5
2018-05-21T00:09:33.086Z,989.5
2018-05-21T00:10:33.081Z,989.47
2018-05-21T00:11:33.100Z,989.42
2018-05-21T00:12:33.083Z,989.47
2018-05-21T00:13:33.089Z,989.5
2018-05-21T00:14:33.079Z,989.45
2018-05-21T00:15:33.081Z,989.43
2018-05-21T00:16:33.082Z,989.38
2018-05-21T00:17:33.078Z,989.42
2018-05-21T00:18:33.087Z,989.49
2018-05-21T00:19:33.079Z,989.46
2018-05-21T00:20:33.078Z,989.44
2018-05-21T00:21:33.074Z,989.42
2018-05-21T00:22:33.077Z,989.43
2018-05-21T00:23:33.073Z,989.46
2018-05-21T00:24:33.079Z,989.43
2018-05-21T00:25:33.074Z,989.45
2018-05-21T00:26:33.077Z,989.48
2018-05-21T00:27:33.072Z,989.48
2018-05-21T00:28:33.078Z,989.42
2018-05-21T00:29:33.074Z,989.48
2018-05-21T00:30:33.072Z,989.46
2018-05-21T00:31:33.072Z,989.47
2018-05-21T00:32:33.069Z,989.42
2018-05-21T00:33:33.068Z,989.42
2018-05-21T00:34:33.069Z,989.42
2018-05-21T00:35:33.069Z,989.44
2018-05-21T00:36:33.066Z,989.42
2018-05-21T00:37:33.067Z,989.41
2018-05-21T00:38:33.066Z,989.38
2018-05-21T00:39:33.068Z,989.41
2018-05-21T00:40:33.065Z,989.35
2018-05-21T00:41:33.067Z,989.39
2018-05-21T00:42:33.082Z,989.35
2018-05-21T00:43:33.064Z,989.37
2018-05-21T00:44:33.063Z,989.38
2018-05-21T00:45:33.068Z,989.4
2018-05-21T00:46:33.063Z,989.35
2018-05-21T00:47:33.063Z,989.38
2018-05-21T00:48:33.074Z,989.36
2018-05-21T00:49:33.065Z,989.39
2018-05-21T00:50:33.067Z,989.39
2018-05-21T00:51:33.059Z,989.41
2018-05-21T00:52:33.072Z,989.4
2018-05-21T00:53:33.074Z,989.42
2018-05-21T00:54:33.057Z,989.42
2018-05-21T00:55:33.068Z,989.41
2018-05-21T00:56:33.129Z,989.4
2018-05-21T00:57:33.127Z,989.4
2018-05-21T00:58:33.059Z,989.38
2018-05-21T00:59:33.058Z,989.37
2018-05-21T01:00:33.075Z,989.35
2018-05-21T01:01:33.054Z,989.36
2018-05-21T01:02:33.057Z,989.34
2018-05-21T01:03:33.061Z,989.36
2018-05-21T01:04:33.066Z,989.35
2018-05-21T01:05:33.047Z,989.32
2018-05-21T01:06:33.070Z,989.34
2018-05-21T01:07:33.047Z,989.3
2018-05-21T01:08:33.047Z,989.33
2018-05-21T01:09:33.044Z,989.3
2018-05-21T01:10:33.049Z,989.28
2018-05-21T01:11:33.065Z,989.29
2018-05-21T01:12:33.045Z,989.28
2018-05-21T01:13:33.048Z,989.32
2018-05-21T01:14:33.045Z,989.28
2018-05-21T01:15:33.039Z,989.31
2018-05-21T01:16:33.044Z,989.3
2018-05-21T01:17:33.042Z,989.3
2018-05-21T01:18:33.045Z,989.28
2018-05-21T01:19:33.037Z,989.29
2018-05-21T01:20:33.039Z,989.26
2018-05-21T01:21:33.036Z,989.29
2018-05-21T01:22:33.033Z,989.28
2018-05-21T01:23:33.037Z,989.27
2018-05-21T01:24:33.036Z,989.27
2018-05-21T01:25:33.045Z,989.3
2018-05-21T01:26:33.033Z,989.36
2018-05-21T01:27:33.032Z,989.32
2018-05-21T01:28:33.032Z,989.32
2018-05-21T01:29:33.028Z,989.33
2018-05-21T01:30:33.028Z,989.33
2018-05-21T01:31:33.031Z,989.36
2018-05-21T01:32:33.026Z,989.3
2018-05-21T01:33:33.025Z,989.33
2018-05-21T01:34:33.032Z,989.32
2018-05-21T01:35:33.024Z,989.3
2018-05-21T01:36:33.027Z,989.33
2018-05-21T01:37:33.025Z,989.39
2018-05-21T01:38:33.023Z,989.36
2018-05-21T01:39:33.019Z,989.33
2018-05-21T01:40:33.020Z,989.34
2018-05-21T01:41:33.022Z,989.37
2018-05-21T01:42:33.023Z,989.34
2018-05-21T01:43:33.019Z,989.33
2018-05-21T01:44:33.021Z,989.31
2018-05-21T01:45:33.014Z,989.33
2018-05-21T01:46:33.013Z,989.32
2018-05-21T01:47:33.016Z,989.3
2018-05-21T01:48:33.020Z,989.32
2018-05-21T01:49:33.012Z,989.31
2018-05-21T01:50:33.010Z,989.31
2018-05-21T01:51:33.008Z,989.29
2018-05-21T01:52:33.012Z,989.28
2018-05-21T01:53:33.005Z,989.26
2018-05-21T01:54:33.005Z,989.28
2018-05-21T01:55:33.033Z,989.27
2018-05-21T01:56:33.005Z,989.29
2018-05-21T01:57:32.999Z,989.26
2018-05-21T01:58:33.001Z,989.28
2018-05-21T01:59:33.000Z,989.26
2018-05-21T02:00:33.004Z,989.25
2018-05-21T02:01:32.995Z,989.27
2018-05-21T02:02:32.996Z,989.26
2018-05-21T02:03:32.998Z,989.24
2018-05-21T02:04:32.997Z,989.25
2018-05-21T02:05:32.994Z,989.24
2018-05-21T02:06:33.010Z,989.23
2018-05-21T02:07:32.987Z,989.2
2018-05-21T02:08:33.067Z,989.22
2018-05-21T02:09:32.984Z,989.22
2018-05-21T02:10:32.986Z,989.19
2018-05-21T02:11:32.991Z,989.24
2018-05-21T02:12:32.984Z,989.21
2018-05-21T02:13:32.980Z,989.22
2018-05-21T02:14:32.978Z,989.19
2018-05-21T02:15:32.980Z,989.19
2018-05-21T02:16:32.975Z,989.14
2018-05-21T02:17:32.979Z,989.15
2018-05-21T02:18:32.973Z,989.14
2018-05-21T02:19:32.975Z,989.12
2018-05-21T02:20:32.972Z,989.13
2018-05-21T02:21:32.969Z,989.17
2018-05-21T02:22:32.969Z,989.14
2018-05-21T02:23:32.975Z,989.13
2018-05-21T02:24:32.966Z,989.09
2018-05-21T02:25:32.962Z,989.13
2018-05-21T02:26:32.961Z,989.11
2018-05-21T02:27:32.960Z,989.12
2018-05-21T02:28:32.958Z,989.09
2018-05-21T02:29:32.962Z,989.07
2018-05-21T02:30:32.955Z,989.08
2018-05-21T02:31:32.954Z,989.1
2018-05-21T02:32:32.951Z,989.11
2018-05-21T02:33:32.959Z,989.11
2018-05-21T02:34:32.951Z,989.11
2018-05-21T02:35:32.953Z,989.1
2018-05-21T02:36:32.955Z,989.07
2018-05-21T02:37:32.948Z,989.12
2018-05-21T02:38:32.960Z,989.1
2018-05-21T02:39:32.955Z,989.09
2018-05-21T02:40:32.942Z,989.09
2018-05-21T02:41:32.948Z,989.08
2018-05-21T02:42:32.937Z,989.1
2018-05-21T02:43:32.937Z,989.09
2018-05-21T02:44:32.934Z,989.11
2018-05-21T02:45:32.995Z,989.13
2018-05-21T02:46:32.932Z,989.11
2018-05-21T02:47:32.931Z,989.08
2018-05-21T02:48:32.930Z,989.11
2018-05-21T02:49:32.929Z,989.1
2018-05-21T02:50:32.933Z,989.11
2018-05-21T02:51:32.925Z,989.13
2018-05-21T02:52:32.932Z,989.08
2018-05-21T02:53:32.922Z,989.12
2018-05-21T02:54:32.922Z,989.16
2018-05-21T02:55:32.920Z,989.14
2018-05-21T02:56:32.921Z,989.11
2018-05-21T02:57:32.916Z,989.17
2018-05-21T02:58:32.917Z,989.18
2018-05-21T02:59:32.914Z,989.19
2018-05-21T03:00:32.910Z,989.18
2018-05-21T03:01:32.911Z,989.18
2018-05-21T03:02:32.912Z,989.17
2018-05-21T03:03:32.913Z,989.23
2018-05-21T03:04:32.918Z,989.18
2018-05-21T03:05:32.906Z,989.2
2018-05-21T03:06:32.901Z,989.16
2018-05-21T03:07:32.901Z,989.17
2018-05-21T03:08:32.912Z,989.17
2018-05-21T03:09:32.897Z,989.18
2018-05-21T03:10:32.895Z,989.19
2018-05-21T03:11:32.902Z,989.13
2018-05-21T03:12:32.893Z,989.11
2018-05-21T03:13:32.890Z,989.14
2018-05-21T03:14:32.891Z,989.12
2018-05-21T03:15:32.889Z,989.1
2018-05-21T03:16:32.896Z,989.13
2018-05-21T03:17:32.885Z,989.12
2018-05-21T03:18:32.881Z,989.12
2018-05-21T03:19:32.881Z,989.15
2018-05-21T03:20:32.878Z,989.13
2018-05-21T03:21:32.882Z,989.18
2018-05-21T03:22:32.874Z,989.14
2018-05-21T03:23:32.876Z,989.14
2018-05-21T03:24:32.871Z,989.14
2018-05-21T03:25:32.871Z,989.14
2018-05-21T03:26:32.867Z,989.14
2018-05-21T03:27:32.867Z,989.18
2018-05-21T03:28:32.867Z,989.18
2018-05-21T03:29:32.863Z,989.22
2018-05-21T03:30:32.863Z,989.25
2018-05-21T03:31:32.865Z,989.21
2018-05-21T03:32:32.857Z,989.23
2018-05-21T03:33:32.859Z,989.28
2018-05-21T03:34:32.854Z,989.22
2018-05-21T03:35:32.855Z,989.24
2018-05-21T03:36:32.853Z,989.23
2018-05-21T03:37:32.857Z,989.23
2018-05-21T03:38:32.850Z,989.21
2018-05-21T03:39:32.846Z,989.22
2018-05-21T03:40:32.855Z,989.24
2018-05-21T03:41:32.882Z,989.2
2018-05-21T03:42:32.923Z,989.17
2018-05-21T03:43:32.856Z,989.24
2018-05-21T03:44:32.854Z,989.2
2018-05-21T03:45:32.837Z,989.17
2018-05-21T03:46:32.834Z,989.21
2018-05-21T03:47:32.833Z,989.19
2018-05-21T03:48:32.827Z,989.19
2018-05-21T03:49:32.825Z,989.19
2018-05-21T03:50:32.827Z,989.21
2018-05-21T03:51:32.843Z,989.2
2018-05-21T03:52:32.822Z,989.19
2018-05-21T03:53:32.822Z,989.24
2018-05-21T03:54:32.819Z,989.2
2018-05-21T03:55:32.818Z,989.22
2018-05-21T03:56:32.816Z,989.24
2018-05-21T03:57:32.867Z,989.25
2018-05-21T03:58:32.815Z,989.25
2018-05-21T03:59:32.833Z,989.24
2018-05-21T04:00:32.809Z,989.25
2018-05-21T04:01:32.809Z,989.24
2018-05-21T04:02:32.806Z,989.24
2018-05-21T04:03:32.804Z,989.22
2018-05-21T04:04:32.902Z,989.23
2018-05-21T04:05:32.809Z,989.23
2018-05-21T04:06:32.802Z,989.33
2018-05-21T04:07:32.807Z,989.31
2018-05-21T04:08:32.805Z,989.3
2018-05-21T04:09:32.816Z,989.36
2018-05-21T04:10:32.811Z,989.29
2018-05-21T04:11:32.806Z,989.26
2018-05-21T04:12:32.849Z,989.28
2018-05-21T04:13:32.793Z,989.3
2018-05-21T04:14:32.791Z,989.33
2018-05-21T04:15:32.804Z,989.29
2018-05-21T04:16:32.816Z,989.32
2018-05-21T04:17:32.791Z,989.31
2018-05-21T04:18:32.792Z,989.35
2018-05-21T04:19:32.800Z,989.34
2018-05-21T04:20:32.791Z,989.39
2018-05-21T04:21:32.790Z,989.39
2018-05-21T04:22:32.788Z,989.32
2018-05-21T04:23:32.792Z,989.37
2018-05-21T04:24:32.793Z,989.36
2018-05-21T04:25:32.817Z,989.3
2018-05-21T04:26:32.793Z,989.29
2018-05-21T04:27:32.844Z,989.31
2018-05-21T04:28:32.795Z,989.28
2018-05-21T04:29:32.796Z,989.25
2018-05-21T04:30:32.818Z,989.25
2018-05-21T04:31:32.801Z,989.28
2018-05-21T04:32:32.814Z,989.27
2018-05-21T04:33:32.825Z,989.26
2018-05-21T04:34:32.819Z,989.29
2018-05-21T04:35:32.816Z,989.36
2018-05-21T04:36:32.881Z,989.35
2018-05-21T04:37:32.823Z,989.36
2018-05-21T04:38:32.823Z,989.29
2018-05-21T04:39:32.827Z,989.34
2018-05-21T04:40:32.831Z,989.38
2018-05-21T04:41:32.840Z,989.32
2018-05-21T04:42:32.881Z,989.22
2018-05-21T04:43:32.835Z,989.16
2018-05-21T04:44:32.836Z,989.18
2018-05-21T04:45:32.839Z,989.22
2018-05-21T04:46:32.848Z,989.36
2018-05-21T04:47:32.845Z,989.36
2018-05-21T04:48:32.853Z,989.21
2018-05-21T04:49:32.854Z,989.19
2018-05-21T04:50:32.855Z,989.2
2018-05-21T04:51:32.858Z,989.19
2018-05-21T04:52:32.863Z,989.21
2018-05-21T04:53:32.865Z,989.19
2018-05-21T04:54:32.879Z,989.18
2018-05-21T04:55:32.893Z,989.21
2018-05-21T04:56:32.897Z,989.22
2018-05-21T04:57:32.873Z,989.26
2018-05-21T04:58:32.894Z,989.25
2018-05-21T04:59:32.890Z,989.28
2018-05-21T05:00:32.895Z,989.29
2018-05-21T05:01:32.894Z,989.26
2018-05-21T05:02:32.892Z,989.31
2018-05-21T05:03:32.895Z,989.34
2018-05-21T05:04:32.893Z,989.34
2018-05-21T05:05:32.901Z,989.34
2018-05-21T05:06:32.896Z,989.35
2018-05-21T05:07:32.904Z,989.38
2018-05-21T05:08:32.901Z,989.37
2018-05-21T05:09:32.901Z,989.38
2018-05-21T05:10:32.902Z,989.34
2018-05-21T05:11:32.908Z,989.34
2018-05-21T05:12:32.955Z,989.25
2018-05-21T05:13:32.910Z,989.24
2018-05-21T05:14:32.908Z,989.18
2018-05-21T05:15:32.911Z,989.19
2018-05-21T05:16:32.911Z,989.22
2018-05-21T05:17:32.914Z,989.4
2018-05-21T05:18:32.953Z,989.4
2018-05-21T05:19:32.917Z,989.18
2018-05-21T05:20:32.921Z,989.17
2018-05-21T05:21:32.924Z,989.15
2018-05-21T05:22:32.925Z,989.2
2018-05-21T05:23:32.928Z,989.18
2018-05-21T05:24:32.932Z,989.16
2018-05-21T05:25:32.933Z,989.14
2018-05-21T05:26:32.987Z,989.18
2018-05-21T05:27:32.985Z,989.14
2018-05-21T05:28:32.938Z,989.37
2018-05-21T05:29:32.946Z,989.37
2018-05-21T05:30:32.954Z,989.33
2018-05-21T05:31:32.977Z,989.33
2018-05-21T05:32:32.971Z,989.34
2018-05-21T05:33:32.972Z,989.34
2018-05-21T05:34:32.969Z,989.32
2018-05-21T05:35:32.970Z,989.27
2018-05-21T05:36:32.975Z,989.29
2018-05-21T05:37:32.975Z,989.29
2018-05-21T05:38:32.977Z,989.28
2018-05-21T05:39:32.984Z,989.25
2018-05-21T05:40:32.981Z,989.24
2018-05-21T05:41:32.979Z,989.19
2018-05-21T05:42:33.035Z,989.22
2018-05-21T05:43:32.987Z,989.27
2018-05-21T05:44:32.993Z,989.25
2018-05-21T05:45:33.004Z,989.25
2018-05-21T05:46:33.077Z,989.2
2018-05-21T05:47:33.014Z,989.19
2018-05-21T05:48:33.020Z,989.22
2018-05-21T05:49:33.031Z,989.19
2018-05-21T05:50:33.033Z,989.22
2018-05-21T05:51:33.034Z,989.19
2018-05-21T05:52:33.039Z,989.19
2018-05-21T05:53:33.057Z,989.19
2018-05-21T05:54:33.053Z,989.18
2018-05-21T05:55:33.068Z,989.2
2018-05-21T05:56:33.066Z,989.17
2018-05-21T05:57:33.924Z,989.18
2018-05-21T05:58:33.084Z,989.17
2018-05-21T05:59:33.092Z,989.2
2018-05-21T06:00:33.100Z,989.15
2018-05-21T06:01:33.101Z,989.15
2018-05-21T06:02:33.110Z,989.12
2018-05-21T06:03:33.184Z,989.16
2018-05-21T06:04:33.124Z,989.13
2018-05-21T06:05:33.130Z,989.13
2018-05-21T06:06:33.145Z,989.17
2018-05-21T06:07:33.151Z,989.17
2018-05-21T06:08:33.151Z,989.17
2018-05-21T06:09:33.160Z,989.16
2018-05-21T06:10:33.167Z,989.14
2018-05-21T06:11:33.181Z,989.17
2018-05-21T06:12:33.184Z,989.08
2018-05-21T06:13:33.198Z,989.16
2018-05-21T06:23:35.206Z,989.21
2018-05-21T06:24:35.200Z,989.23
2018-05-21T06:25:35.205Z,989.21
2018-05-21T06:26:35.209Z,989.14
2018-05-21T06:27:35.214Z,989.17
2018-05-21T06:28:35.272Z,989.13
2018-05-21T06:29:35.226Z,989.18
2018-05-21T06:30:35.244Z,989.16
2018-05-21T06:31:35.242Z,989.17
2018-05-21T06:32:35.248Z,989.11
2018-05-21T06:33:35.253Z,989.21
2018-05-21T06:34:35.357Z,989.18
2018-05-21T06:35:35.272Z,989.21
2018-05-21T06:36:35.287Z,989.19
2018-05-21T06:37:35.285Z,989.21
2018-05-21T06:38:35.289Z,989.22
2018-05-21T06:39:35.296Z,989.24
2018-05-21T06:40:35.328Z,989.24
2018-05-21T06:41:35.313Z,989.24
2018-05-21T06:42:35.315Z,989.22
2018-05-21T06:43:35.373Z,989.23
2018-05-21T06:44:35.331Z,989.27
2018-05-21T06:45:35.339Z,989.21
2018-05-21T06:46:35.346Z,989.23
2018-05-21T06:47:35.354Z,989.24
2018-05-21T06:48:35.388Z,989.22
2018-05-21T06:49:35.372Z,989.22
2018-05-21T06:50:35.375Z,989.25
2018-05-21T06:51:35.380Z,989.23
2018-05-21T06:52:35.391Z,989.21
2018-05-21T06:53:35.392Z,989.19
2018-05-21T06:54:35.402Z,989.23
2018-05-21T06:55:35.408Z,989.21
2018-05-21T06:56:35.412Z,989.22
2018-05-21T06:57:35.421Z,989.22
2018-05-21T06:58:35.490Z,989.18
2018-05-21T06:59:35.438Z,989.21
2018-05-21T07:00:35.443Z,989.15
2018-05-21T07:01:35.449Z,989.21
2018-05-21T07:02:35.473Z,989.11
2018-05-21T07:03:35.464Z,989.19
2018-05-21T07:04:35.474Z,989.08
2018-05-21T07:05:35.480Z,989.09
2018-05-21T07:06:35.489Z,989.09
2018-05-21T07:07:35.494Z,989.06
2018-05-21T07:08:35.502Z,989.11
2018-05-21T07:09:35.521Z,989.04
2018-05-21T07:10:35.532Z,989.08
2018-05-21T07:11:35.528Z,989.1
2018-05-21T07:12:35.538Z,989.05
2018-05-21T07:13:35.585Z,989.04
2018-05-21T07:14:35.543Z,989.07
2018-05-21T07:15:35.553Z,989.05
2018-05-21T07:16:35.559Z,989.01
2018-05-21T07:17:35.576Z,989.01
2018-05-21T07:18:36.371Z,989.02
2018-05-21T07:19:35.578Z,989.03
2018-05-21T07:20:35.585Z,989.07
2018-05-21T07:21:35.591Z,989.03
2018-05-21T07:22:35.600Z,989.1
2018-05-21T07:23:35.605Z,989.11
2018-05-21T07:24:35.612Z,989.04
2018-05-21T07:25:35.621Z,989.03
2018-05-21T07:26:35.625Z,989.01
2018-05-21T07:27:35.646Z,989.05
2018-05-21T07:28:35.693Z,989.01
2018-05-21T07:29:35.644Z,989.03
2018-05-21T07:30:35.656Z,989.04
2018-05-21T07:31:35.695Z,989.02
2018-05-21T07:32:35.664Z,989.02
2018-05-21T07:33:35.675Z,988.98
2018-05-21T07:34:35.686Z,988.92
2018-05-21T07:35:35.695Z,988.95
2018-05-21T07:36:35.697Z,988.9
2018-05-21T07:37:35.705Z,988.94
2018-05-21T07:38:35.712Z,988.95
2018-05-21T07:39:35.726Z,988.93
2018-05-21T07:40:35.728Z,988.95
2018-05-21T07:41:35.736Z,988.95
2018-05-21T07:42:35.742Z,988.95
2018-05-21T07:43:35.805Z,988.91
2018-05-21T07:44:35.765Z,988.93
2018-05-21T07:45:35.769Z,988.94
2018-05-21T07:46:35.775Z,988.96
2018-05-21T07:47:35.778Z,988.92
2018-05-21T07:48:35.793Z,988.95
2018-05-21T07:49:35.796Z,988.91
2018-05-21T07:50:35.802Z,988.95
2018-05-21T07:51:35.904Z,988.92
2018-05-21T07:52:35.827Z,988.94
2018-05-21T07:53:35.831Z,988.9
2018-05-21T07:54:35.839Z,988.92
2018-05-21T07:55:35.860Z,988.87
2018-05-21T07:56:35.865Z,988.88
2018-05-21T07:57:35.860Z,988.86
2018-05-21T07:58:35.921Z,988.86
2018-05-21T07:59:35.878Z,988.83
2018-05-21T08:00:35.890Z,988.81
2018-05-21T08:01:35.891Z,988.82
2018-05-21T08:02:35.902Z,988.8
2018-05-21T08:03:35.917Z,988.83
2018-05-21T08:04:35.929Z,988.78
2018-05-21T08:05:35.921Z,988.82
2018-05-21T08:06:35.940Z,988.81
2018-05-21T08:07:35.937Z,988.77
2018-05-21T08:08:35.944Z,988.73
2018-05-21T08:09:35.954Z,988.7
2018-05-21T08:10:35.964Z,988.73
2018-05-21T08:11:35.971Z,988.69
2018-05-21T08:12:35.986Z,988.71
2018-05-21T08:13:36.033Z,988.75
2018-05-21T08:14:36.117Z,988.76
2018-05-21T08:15:36.000Z,988.72
2018-05-21T08:16:36.005Z,988.74
2018-05-21T08:17:36.016Z,988.76
2018-05-21T08:18:36.022Z,988.73
2018-05-21T08:19:36.030Z,988.78
2018-05-21T08:20:36.039Z,988.75
2018-05-21T08:21:36.047Z,988.74
2018-05-21T08:22:36.141Z,988.77
2018-05-21T08:23:36.071Z,988.77
2018-05-21T08:24:36.072Z,988.74
2018-05-21T08:25:36.080Z,988.75
2018-05-21T08:26:36.086Z,988.76
2018-05-21T08:27:36.093Z,988.77
2018-05-21T08:28:36.188Z,988.78
2018-05-21T08:29:36.112Z,988.74
2018-05-21T08:30:36.115Z,988.78
2018-05-21T08:31:36.126Z,988.75
2018-05-21T08:32:36.137Z,988.73
2018-05-21T08:33:36.143Z,988.75
2018-05-21T08:34:36.149Z,988.71
2018-05-21T08:35:36.161Z,988.7
2018-05-21T08:36:36.166Z,988.69
2018-05-21T08:37:36.175Z,988.68
2018-05-21T08:38:36.183Z,988.68
2018-05-21T08:39:36.199Z,988.73
2018-05-21T08:40:36.198Z,988.71
2018-05-21T08:41:36.207Z,988.72
2018-05-21T08:42:36.237Z,988.71
2018-05-21T08:43:36.269Z,988.7
2018-05-21T08:44:36.231Z,988.61
2018-05-21T08:45:36.239Z,988.62
2018-05-21T08:46:36.247Z,988.6
2018-05-21T08:47:36.254Z,988.61
2018-05-21T08:48:36.278Z,988.54
2018-05-21T08:49:36.267Z,988.6
2018-05-21T08:50:36.275Z,988.57
2018-05-21T08:51:36.295Z,988.52
2018-05-21T08:52:36.286Z,988.52
2018-05-21T08:53:36.322Z,988.51
2018-05-21T08:54:36.304Z,988.52
2018-05-21T08:55:36.316Z,988.53
2018-05-21T08:56:36.423Z,988.46
2018-05-21T08:57:36.325Z,988.51
2018-05-21T08:58:36.387Z,988.51
2018-05-21T08:59:36.339Z,988.51
2018-05-21T09:00:36.347Z,988.53
2018-05-21T09:01:36.362Z,988.5
2018-05-21T09:02:36.369Z,988.54
2018-05-21T09:03:36.367Z,988.5
2018-05-21T09:04:36.407Z,988.52
2018-05-21T09:05:36.382Z,988.48
2018-05-21T09:06:36.393Z,988.51
2018-05-21T09:07:36.392Z,988.51
2018-05-21T09:08:36.400Z,988.47
2018-05-21T09:09:36.412Z,988.51
2018-05-21T09:10:36.415Z,988.5
2018-05-21T09:11:36.416Z,988.5
2018-05-21T09:12:36.421Z,988.51
2018-05-21T09:13:36.476Z,988.53
2018-05-21T09:14:36.437Z,988.53
2018-05-21T09:15:36.435Z,988.51
2018-05-21T09:16:36.516Z,988.48
2018-05-21T09:17:36.456Z,988.45
2018-05-21T09:18:36.455Z,988.43
2018-05-21T09:19:36.460Z,988.41
2018-05-21T09:20:36.461Z,988.46
2018-05-21T09:21:36.466Z,988.45
2018-05-21T09:22:36.533Z,988.43
2018-05-21T09:23:36.477Z,988.41
2018-05-21T09:24:36.565Z,988.38
2018-05-21T09:25:36.485Z,988.34
2018-05-21T09:26:36.495Z,988.37
2018-05-21T09:27:36.498Z,988.36
2018-05-21T09:28:37.354Z,988.39
2018-05-21T09:29:36.509Z,988.39
2018-05-21T09:30:36.511Z,988.41
2018-05-21T09:31:36.516Z,988.4
2018-05-21T09:32:36.532Z,988.37
2018-05-21T09:33:36.526Z,988.42
2018-05-21T09:34:36.534Z,988.4
2018-05-21T09:35:36.536Z,988.37
2018-05-21T09:36:36.545Z,988.39
2018-05-21T09:37:36.546Z,988.39
2018-05-21T09:38:36.553Z,988.33
2018-05-21T09:39:36.576Z,988.32
2018-05-21T09:40:36.570Z,988.3
2018-05-21T09:41:36.572Z,988.25
2018-05-21T09:42:36.569Z,988.27
2018-05-21T09:43:36.573Z,988.28
2018-05-21T09:44:36.588Z,988.22
2018-05-21T09:45:36.585Z,988.21
2018-05-21T09:46:36.591Z,988.24
2018-05-21T09:47:36.593Z,988.28
2018-05-21T09:48:36.679Z,988.24
2018-05-21T09:49:36.600Z,988.24
2018-05-21T09:50:36.603Z,988.2
2018-05-21T09:51:36.609Z,988.2
2018-05-21T09:52:36.615Z,988.18
2018-05-21T09:53:36.618Z,988.15
2018-05-21T09:54:36.620Z,988.17
2018-05-21T09:55:36.627Z,988.13
2018-05-21T09:56:36.636Z,988.18
2018-05-21T09:57:36.636Z,988.12
2018-05-21T09:58:36.668Z,988.17
2018-05-21T09:59:36.678Z,988.13
2018-05-21T10:00:36.660Z,988.18
2018-05-21T10:01:36.653Z,988.16
2018-05-21T10:02:36.655Z,988.1
2018-05-21T10:03:36.669Z,988.13
2018-05-21T10:04:36.663Z,988.14
2018-05-21T10:05:36.666Z,988.12
2018-05-21T10:06:36.677Z,988.13
2018-05-21T10:07:36.680Z,988.1
2018-05-21T10:08:36.680Z,988.12
2018-05-21T10:09:36.683Z,988.1
2018-05-21T10:10:36.689Z,988.08
2018-05-21T10:11:36.692Z,988.06
2018-05-21T10:12:36.694Z,988.07
2018-05-21T10:13:36.712Z,988.04
2018-05-21T10:14:36.707Z,988.02
2018-05-21T10:15:36.721Z,988.04
2018-05-21T10:16:36.712Z,988.02
2018-05-21T10:17:36.716Z,988.02
2018-05-21T10:18:36.719Z,988.02
2018-05-21T10:19:36.725Z,988
2018-05-21T10:20:36.729Z,988
2018-05-21T10:21:36.738Z,988
2018-05-21T10:22:36.739Z,988
2018-05-21T10:52:56.694Z,987.78
2018-05-21T10:53:56.622Z,987.74
2018-05-21T10:54:56.627Z,987.8
2018-05-21T10:55:56.626Z,987.77
2018-05-21T10:56:56.669Z,987.78
2018-05-21T10:57:56.638Z,987.78
2018-05-21T10:58:56.631Z,987.74
2018-05-21T10:59:56.640Z,987.74
2018-05-21T11:00:56.643Z,987.71
2018-05-21T11:01:56.646Z,987.68
2018-05-21T11:02:56.657Z,987.69
2018-05-21T11:03:56.641Z,987.72
2018-05-21T11:04:56.646Z,987.71
2018-05-21T11:05:56.651Z,987.65
2018-05-21T11:06:56.656Z,987.66
2018-05-21T11:07:56.659Z,987.67
2018-05-21T11:08:56.662Z,987.59
2018-05-21T11:09:56.665Z,987.69
2018-05-21T11:10:56.667Z,987.66
2018-05-21T11:11:56.673Z,987.7
2018-05-21T11:12:56.681Z,987.66
2018-05-21T11:13:56.678Z,987.64
2018-05-21T11:14:56.694Z,987.63
2018-05-21T11:15:56.689Z,987.62
2018-05-21T11:16:56.695Z,987.58
2018-05-21T11:17:56.768Z,987.6
2018-05-21T11:18:56.706Z,987.55
2018-05-21T11:19:56.711Z,987.58
2018-05-21T11:20:56.709Z,987.55
2018-05-21T11:21:56.716Z,987.48
2018-05-21T11:22:56.721Z,987.5
2018-05-21T11:23:56.785Z,987.45
2018-05-21T11:24:56.744Z,987.44
2018-05-21T11:25:56.736Z,987.43
2018-05-21T11:26:56.736Z,987.46
2018-05-21T11:27:56.742Z,987.42
2018-05-21T11:28:56.757Z,987.39
2018-05-21T11:29:56.751Z,987.36
2018-05-21T11:30:56.759Z,987.37
2018-05-21T11:31:56.836Z,987.36
2018-05-21T11:32:56.764Z,987.34
2018-05-21T11:33:56.769Z,987.32
2018-05-21T11:34:56.774Z,987.3
2018-05-21T11:35:56.778Z,987.35
2018-05-21T11:36:56.792Z,987.3
2018-05-21T11:37:56.789Z,987.29
2018-05-21T11:38:56.796Z,987.3
2018-05-21T11:39:56.797Z,987.26
2018-05-21T11:40:56.807Z,987.26
2018-05-21T11:41:56.814Z,987.29
2018-05-21T11:42:56.814Z,987.26
2018-05-21T11:43:56.824Z,987.25
2018-05-21T11:44:56.838Z,987.25
2018-05-21T11:45:56.826Z,987.24
2018-05-21T11:46:56.832Z,987.23
2018-05-21T11:47:56.835Z,987.18
2018-05-21T11:48:56.850Z,987.23
2018-05-21T11:49:56.867Z,987.26
2018-05-21T11:50:56.854Z,987.22
2018-05-21T11:51:56.871Z,987.2
2018-05-21T11:52:56.864Z,987.21
2018-05-21T11:53:56.870Z,987.2
2018-05-21T11:54:56.886Z,987.18
2018-05-21T11:55:56.887Z,987.17
2018-05-21T11:56:56.891Z,987.16
2018-05-21T11:57:56.896Z,987.14
2018-05-21T11:58:56.896Z,987.14
2018-05-21T11:59:56.900Z,987.16
2018-05-21T12:00:56.907Z,987.1
2018-05-21T12:01:56.920Z,987.12
2018-05-21T12:02:56.920Z,987.12
2018-05-21T12:03:56.916Z,987.07
2018-05-21T12:04:56.921Z,987.07
2018-05-21T12:05:56.938Z,987.13
2018-05-21T12:06:56.935Z,987.12
2018-05-21T12:07:56.952Z,987.11
2018-05-21T12:08:57.003Z,987.11
2018-05-21T12:09:56.955Z,987.08
2018-05-21T12:10:56.960Z,987.07
2018-05-21T12:11:56.972Z,987.04
2018-05-21T12:12:56.968Z,987.02
2018-05-21T12:13:56.969Z,987.01
2018-05-21T12:14:56.974Z,987
2018-05-21T12:15:56.977Z,987.01
2018-05-21T12:16:56.979Z,986.95
2018-05-21T12:17:56.986Z,986.95
2018-05-21T12:18:57.000Z,986.92
2018-05-21T12:19:56.999Z,986.89
2018-05-21T12:20:56.999Z,986.91
2018-05-21T12:21:57.005Z,986.87
2018-05-21T12:22:57.010Z,986.89
2018-05-21T12:23:57.316Z,986.86
2018-05-21T12:24:57.040Z,986.9
2018-05-21T12:25:57.028Z,986.86
2018-05-21T12:26:57.055Z,986.85
2018-05-21T12:27:57.043Z,986.86
2018-05-21T12:28:57.050Z,986.83
2018-05-21T12:29:57.053Z,986.86
2018-05-21T12:30:57.052Z,986.84
2018-05-21T12:31:57.065Z,986.86
2018-05-21T12:32:57.064Z,986.85
2018-05-21T12:33:57.070Z,986.82
2018-05-21T12:34:57.077Z,986.84
2018-05-21T12:35:57.082Z,986.83
2018-05-21T12:36:57.085Z,986.84
2018-05-21T12:37:57.089Z,986.78
2018-05-21T12:38:57.154Z,986.83
2018-05-21T12:39:57.107Z,986.82
2018-05-21T12:40:57.111Z,986.77
2018-05-21T12:41:57.109Z,986.8
2018-05-21T12:42:57.113Z,986.78
2018-05-21T12:43:57.119Z,986.8
2018-05-21T12:44:57.126Z,986.81
2018-05-21T12:45:57.132Z,986.77
2018-05-21T12:46:57.300Z,986.76
2018-05-21T12:47:57.148Z,986.77
2018-05-21T12:48:57.152Z,986.78
2018-05-21T12:49:57.160Z,986.77
2018-05-21T12:50:57.159Z,986.79
2018-05-21T12:51:57.163Z,986.77
2018-05-21T12:52:57.169Z,986.74
2018-05-21T12:54:01.229Z,986.74
2018-05-21T12:54:57.176Z,986.77
2018-05-21T12:55:57.195Z,986.74
2018-05-21T12:56:57.190Z,986.75
2018-05-21T12:57:57.237Z,986.72
2018-05-21T12:58:57.202Z,986.71
2018-05-21T12:59:57.203Z,986.74
2018-05-21T13:00:57.261Z,986.69
2018-05-21T13:01:57.222Z,986.71
2018-05-21T13:02:58.043Z,986.77
2018-05-21T13:03:57.225Z,986.77
2018-05-21T13:04:57.237Z,986.68
2018-05-21T13:05:57.239Z,986.7
2018-05-21T13:06:57.249Z,986.7
2018-05-21T13:07:57.259Z,986.63
2018-05-21T13:08:57.252Z,986.65
2018-05-21T13:09:57.255Z,986.67